createdAt,value
2023-04-26T00:00:00.094Z,1.71
2023-04-26T00:02:30.111Z,1.79
2023-04-26T00:04:58.867Z,1.83
2023-04-26T00:07:25.951Z,1.90
2023-04-26T00:14:16.004Z,1.90
2023-04-26T00:16:42.829Z,1.93
2023-04-26T00:19:10.368Z,2.01
2023-04-26T00:21:37.203Z,2.08
2023-04-26T00:24:05.608Z,2.10
2023-04-26T00:26:34.391Z,2.02
2023-04-26T00:29:04.286Z,2.00
2023-04-26T00:31:31.357Z,2.03
2023-04-26T00:33:58.101Z,1.99
2023-04-26T00:36:24.756Z,1.97
2023-04-26T00:38:56.157Z,2.02
2023-04-26T00:41:22.913Z,2.02
2023-04-26T00:43:49.810Z,1.98
2023-04-26T00:46:18.587Z,1.85
2023-04-26T00:48:48.178Z,1.75
2023-04-26T00:51:16.086Z,1.67
2023-04-26T00:53:43.445Z,1.62
2023-04-26T00:56:12.448Z,1.67
2023-04-26T00:58:41.885Z,1.60
2023-04-26T01:01:08.626Z,1.51
2023-04-26T01:03:35.534Z,1.43
2023-04-26T01:06:02.780Z,1.35
2023-04-26T01:08:32.541Z,1.26
2023-04-26T01:10:59.582Z,1.30
2023-04-26T01:13:27.284Z,1.35
2023-04-26T01:15:58.950Z,1.47
2023-04-26T01:18:30.001Z,1.40
2023-04-26T01:21:00.930Z,1.31
2023-04-26T01:23:34.604Z,1.37
2023-04-26T01:26:01.330Z,1.33
2023-04-26T01:28:28.055Z,1.42
2023-04-26T01:30:57.559Z,1.48
2023-04-26T01:33:24.295Z,1.46
2023-04-26T01:35:50.928Z,1.41
2023-04-26T01:38:20.509Z,1.37
2023-04-26T01:40:47.255Z,1.39
2023-04-26T01:43:15.521Z,1.38
2023-04-26T01:45:48.150Z,1.28
2023-04-26T01:48:14.977Z,1.24
2023-04-26T01:50:47.423Z,1.21
2023-04-26T01:53:14.266Z,1.14
2023-04-26T01:55:46.860Z,1.08
2023-04-26T01:58:13.746Z,1.09
2023-04-26T02:00:43.224Z,1.07
2023-04-26T02:03:09.909Z,0.99
2023-04-26T02:05:36.660Z,0.99
2023-04-26T02:08:03.700Z,1.07
2023-04-26T02:10:32.463Z,1.13
2023-04-26T02:12:59.125Z,1.16
2023-04-26T02:15:28.647Z,1.24
2023-04-26T02:17:55.867Z,1.42
2023-04-26T02:20:22.845Z,1.52
2023-04-26T02:22:49.459Z,1.63
2023-04-26T02:25:16.651Z,1.71
2023-04-26T02:27:46.489Z,1.76
2023-04-26T02:30:13.514Z,1.84
2023-04-26T02:32:43.347Z,1.86
2023-04-26T02:35:10.687Z,1.82
2023-04-26T02:37:37.525Z,1.71
2023-04-26T02:40:08.682Z,1.71
2023-04-26T02:42:35.447Z,1.64
2023-04-26T02:45:04.541Z,1.56
2023-04-26T02:47:35.745Z,1.51
2023-04-26T02:50:04.192Z,1.46
2023-04-26T02:52:31.099Z,1.37
2023-04-26T02:54:57.865Z,1.28
2023-04-26T02:57:26.102Z,1.24
2023-04-26T02:59:55.743Z,1.23
2023-04-26T03:02:22.524Z,1.17
2023-04-26T03:04:49.893Z,1.18
2023-04-26T03:07:18.853Z,1.20
2023-04-26T03:09:48.553Z,1.25
2023-04-26T03:12:15.604Z,1.21
2023-04-26T03:14:42.394Z,1.23
2023-04-26T03:17:11.230Z,1.19
2023-04-26T03:19:38.226Z,1.16
2023-04-26T03:22:05.833Z,1.14
2023-04-26T03:24:35.330Z,1.05
2023-04-26T03:27:04.893Z,1.11
2023-04-26T03:29:31.573Z,1.13
2023-04-26T03:31:58.257Z,1.11
2023-04-26T03:34:28.005Z,1.01
2023-04-26T03:36:57.861Z,1.01
2023-04-26T03:39:32.623Z,0.96
2023-04-26T03:42:00.392Z,0.92
2023-04-26T03:44:28.298Z,0.86
2023-04-26T03:46:56.402Z,0.88
2023-04-26T03:49:23.023Z,0.85
2023-04-26T03:51:49.627Z,0.81
2023-04-26T03:54:16.581Z,0.82
2023-04-26T03:56:43.242Z,0.82
2023-04-26T03:59:11.867Z,0.76
2023-04-26T04:01:38.602Z,0.76
2023-04-26T04:04:05.840Z,0.81
2023-04-26T04:06:32.969Z,0.73
2023-04-26T04:08:59.741Z,0.74
2023-04-26T04:11:29.503Z,0.75
2023-04-26T04:13:56.354Z,0.88
2023-04-26T04:16:23.349Z,0.93
2023-04-26T04:18:59.473Z,0.98
2023-04-26T04:21:32.329Z,1.01
2023-04-26T04:23:59.170Z,1.01
2023-04-26T04:26:28.456Z,1.11
2023-04-26T04:29:00.554Z,1.14
2023-04-26T04:31:30.510Z,1.27
2023-04-26T04:33:57.188Z,1.31
2023-04-26T04:36:23.882Z,1.35
2023-04-26T04:38:52.198Z,1.38
2023-04-26T04:41:22.366Z,1.48
2023-04-26T04:43:49.208Z,1.57
2023-04-26T04:48:59.716Z,1.73
2023-04-26T05:49:02.199Z,5.19
2023-04-26T06:40:14.057Z,8.93
2023-04-26T06:42:44.644Z,8.77
2023-04-26T06:45:12.708Z,8.86
2023-04-26T06:47:42.571Z,8.89
2023-04-26T06:50:13.005Z,9.33
2023-04-26T06:52:45.816Z,9.75
2023-04-26T06:55:12.728Z,9.98
2023-04-26T06:57:42.980Z,10.13
2023-04-26T07:00:14.010Z,10.40
2023-04-26T07:02:43.696Z,10.72
2023-04-26T07:05:10.669Z,10.47
2023-04-26T07:07:37.505Z,10.41
2023-04-26T07:10:04.798Z,9.92
2023-04-26T07:12:31.567Z,10.15
2023-04-26T07:14:58.317Z,10.01
2023-04-26T07:17:25.031Z,10.09
2023-04-26T07:19:52.211Z,10.00
2023-04-26T07:22:19.713Z,10.07
2023-04-26T07:24:46.453Z,10.35
2023-04-26T07:27:16.044Z,9.51
2023-04-26T07:29:42.744Z,9.73
2023-04-26T07:32:09.523Z,10.05
2023-04-26T07:34:37.572Z,10.04
2023-04-26T07:37:04.619Z,10.75
2023-04-26T07:39:31.393Z,10.84
2023-04-26T07:41:58.156Z,10.31
2023-04-26T07:44:24.912Z,9.27
2023-04-26T07:46:51.617Z,9.04
2023-04-26T07:49:21.364Z,9.40
2023-04-26T07:51:51.555Z,9.29
2023-04-26T07:54:18.515Z,9.10
2023-04-26T07:56:45.441Z,8.80
2023-04-26T07:59:12.251Z,8.62
2023-04-26T08:01:47.121Z,8.71
2023-04-26T08:04:14.237Z,8.61
2023-04-26T08:06:45.131Z,8.40
2023-04-26T08:09:11.936Z,8.41
2023-04-26T08:11:44.657Z,8.46
2023-04-26T08:14:11.695Z,8.45
2023-04-26T08:16:38.913Z,9.23
2023-04-26T08:19:08.206Z,9.70
2023-04-26T08:21:35.034Z,10.52
2023-04-26T08:24:01.745Z,11.05
2023-04-26T08:26:28.372Z,11.25
2023-04-26T08:28:55.681Z,12.04
2023-04-26T08:31:23.056Z,11.65
2023-04-26T08:33:49.936Z,10.67
2023-04-26T08:36:16.910Z,9.62
2023-04-26T08:38:43.787Z,9.12
2023-04-26T08:41:15.071Z,9.42
2023-04-26T08:43:43.110Z,10.49
2023-04-26T08:46:19.647Z,11.15
2023-04-26T08:49:13.539Z,11.76
2023-04-26T08:51:44.376Z,10.88
2023-04-26T08:54:12.533Z,10.26
2023-04-26T08:56:48.813Z,9.51
2023-04-26T08:59:15.973Z,9.05
2023-04-26T09:01:48.292Z,8.54
2023-04-26T09:04:16.133Z,8.20
2023-04-26T09:06:48.612Z,8.55
2023-04-26T09:09:22.753Z,9.65
2023-04-26T09:12:01.637Z,10.54
2023-04-26T09:14:28.618Z,11.40
2023-04-26T09:16:55.922Z,11.87
2023-04-26T09:19:45.035Z,11.98
2023-04-26T09:22:11.960Z,11.84
2023-04-26T09:24:52.185Z,12.47
2023-04-26T09:27:23.460Z,12.56
2023-04-26T09:30:09.647Z,12.87
2023-04-26T09:33:03.405Z,12.96
2023-04-26T09:35:47.582Z,11.91
2023-04-26T09:38:18.714Z,11.48
2023-04-26T09:40:50.864Z,11.45
2023-04-26T09:43:22.727Z,12.22
2023-04-26T09:45:58.978Z,11.65
2023-04-26T09:48:34.563Z,11.14
2023-04-26T09:51:04.144Z,10.70
2023-04-26T09:53:49.241Z,10.61
2023-04-26T09:56:23.027Z,11.84
2023-04-26T09:59:05.231Z,12.24
2023-04-26T10:01:34.850Z,12.76
2023-04-26T10:04:02.349Z,13.39
2023-04-26T10:06:29.557Z,14.00
2023-04-26T10:09:01.285Z,12.41
2023-04-26T10:11:32.018Z,11.40
2023-04-26T10:13:59.386Z,10.31
2023-04-26T10:16:27.398Z,8.98
2023-04-26T10:18:57.090Z,7.82
2023-04-26T10:24:18.861Z,5.92
2023-04-26T10:26:57.247Z,5.55
2023-04-26T10:29:27.919Z,5.59
2023-04-26T10:32:21.733Z,5.88
2023-04-26T10:35:16.451Z,6.27
2023-04-26T10:38:01.669Z,6.36
2023-04-26T10:40:42.294Z,7.07
2023-04-26T10:43:08.895Z,8.00
2023-04-26T10:45:38.082Z,8.87
2023-04-26T10:48:30.610Z,9.79
2023-04-26T10:51:05.447Z,10.27
2023-04-26T10:53:56.577Z,10.70
2023-04-26T10:56:23.478Z,10.98
2023-04-26T10:59:28.365Z,11.46
2023-04-26T11:02:01.126Z,11.79
2023-04-26T11:05:02.993Z,12.48
2023-04-26T11:07:41.449Z,11.82
2023-04-26T11:10:22.588Z,10.56
2023-04-26T11:13:03.272Z,9.28
2023-04-26T11:15:32.059Z,8.87
2023-04-26T11:18:04.875Z,8.53
2023-04-26T11:20:35.190Z,8.52
2023-04-26T11:23:03.800Z,8.75
2023-04-26T11:25:33.078Z,8.84
2023-04-26T11:28:02.537Z,9.62
2023-04-26T11:30:36.642Z,10.79
2023-04-26T11:33:06.232Z,11.52
2023-04-26T11:35:43.115Z,12.46
2023-04-26T11:38:13.212Z,13.33
2023-04-26T11:40:43.084Z,13.87
2023-04-26T11:43:15.845Z,13.95
2023-04-26T11:45:51.146Z,12.78
2023-04-26T11:48:18.167Z,11.15
2023-04-26T11:50:49.392Z,10.31
2023-04-26T11:53:21.544Z,9.67
2023-04-26T11:55:58.200Z,8.84
2023-04-26T11:58:24.893Z,8.52
2023-04-26T12:01:02.360Z,7.91
2023-04-26T12:03:37.978Z,7.80
2023-04-26T12:06:06.337Z,8.24
2023-04-26T12:08:34.024Z,9.50
2023-04-26T12:11:03.325Z,10.80
2023-04-26T12:13:30.717Z,11.00
2023-04-26T12:15:57.603Z,11.67
2023-04-26T12:18:32.845Z,12.87
2023-04-26T12:21:01.862Z,12.94
2023-04-26T12:23:43.116Z,13.67
2023-04-26T12:26:12.090Z,13.96
2023-04-26T12:28:42.389Z,14.34
2023-04-26T12:31:09.410Z,14.33
2023-04-26T12:33:36.987Z,12.58
2023-04-26T12:36:12.696Z,11.12
2023-04-26T12:38:43.177Z,9.98
2023-04-26T12:41:09.999Z,11.24
2023-04-26T12:43:36.867Z,12.26
2023-04-26T12:46:04.299Z,12.89
2023-04-26T12:48:34.009Z,13.66
2023-04-26T12:51:00.912Z,12.70
2023-04-26T12:53:27.823Z,13.71
2023-04-26T12:55:57.561Z,12.58
2023-04-26T12:58:25.402Z,11.66
2023-04-26T13:00:55.142Z,10.68
2023-04-26T13:03:22.026Z,10.31
2023-04-26T13:05:57.073Z,9.91
2023-04-26T13:08:24.449Z,9.63
2023-04-26T13:10:54.377Z,9.34
2023-04-26T13:13:26.332Z,8.94
2023-04-26T13:16:00.547Z,8.74
2023-04-26T13:18:31.044Z,8.61
2023-04-26T13:20:57.880Z,8.58
2023-04-26T13:23:27.196Z,8.70
2023-04-26T13:26:00.642Z,9.02
2023-04-26T13:28:27.421Z,9.29
2023-04-26T13:30:57.182Z,9.18
2023-04-26T13:33:23.982Z,9.32
2023-04-26T13:35:56.751Z,9.99
2023-04-26T13:38:23.658Z,10.26
2023-04-26T13:41:00.099Z,10.25
2023-04-26T13:43:29.379Z,10.13
2023-04-26T13:46:00.020Z,10.45
2023-04-26T13:48:30.829Z,10.35
2023-04-26T13:50:58.913Z,10.01
2023-04-26T13:53:26.156Z,9.73
2023-04-26T13:55:56.539Z,9.74
2023-04-26T13:58:23.425Z,9.84
2023-04-26T14:00:53.401Z,9.78
2023-04-26T14:03:20.252Z,9.52
2023-04-26T14:05:47.324Z,9.04
2023-04-26T14:08:16.872Z,8.77
2023-04-26T14:10:46.900Z,8.53
2023-04-26T14:13:15.990Z,8.64
2023-04-26T14:15:42.913Z,8.74
2023-04-26T14:18:15.273Z,8.87
2023-04-26T14:20:42.387Z,8.95
2023-04-26T14:23:09.118Z,8.98
2023-04-26T14:25:35.856Z,10.10
2023-04-26T14:28:03.425Z,10.47
2023-04-26T14:30:30.142Z,12.03
2023-04-26T14:33:04.424Z,13.33
2023-04-26T14:35:31.178Z,14.42
2023-04-26T14:46:08.808Z,15.70
2023-04-26T14:48:35.918Z,13.93
2023-04-26T15:04:37.968Z,10.59
2023-04-26T15:07:04.851Z,10.47
2023-04-26T15:09:31.745Z,12.07
2023-04-26T15:11:58.447Z,11.42
2023-04-26T15:14:25.269Z,10.90
2023-04-26T15:16:54.981Z,10.23
2023-04-26T15:19:21.891Z,9.63
2023-04-26T15:21:49.405Z,9.27
2023-04-26T15:24:16.200Z,9.07
2023-04-26T15:26:42.920Z,9.65
2023-04-26T15:29:09.643Z,9.61
2023-04-26T15:31:36.910Z,9.36
2023-04-26T15:34:03.816Z,9.01
2023-04-26T15:36:30.658Z,9.24
2023-04-26T15:38:57.638Z,9.71
2023-04-26T15:41:24.413Z,10.75
2023-04-26T15:43:57.428Z,11.73
2023-04-26T15:46:24.984Z,11.70
2023-04-26T15:48:59.205Z,10.84
2023-04-26T15:51:26.440Z,10.02
2023-04-26T15:53:55.536Z,9.73
2023-04-26T15:56:26.087Z,11.51
2023-04-26T15:58:59.978Z,12.83
2023-04-26T16:01:29.098Z,13.31
2023-04-26T16:04:03.534Z,13.60
2023-04-26T16:06:33.690Z,13.78
2023-04-26T16:09:02.235Z,13.81
2023-04-26T16:11:29.175Z,14.28
2023-04-26T16:14:00.919Z,14.55
2023-04-26T16:16:27.954Z,14.58
2023-04-26T16:18:57.895Z,13.43
2023-04-26T16:21:24.993Z,12.93
2023-04-26T16:23:51.924Z,13.23
2023-04-26T16:26:19.130Z,12.56
2023-04-26T16:28:49.975Z,11.35
2023-04-26T16:31:16.758Z,10.25
2023-04-26T16:33:43.596Z,9.66
2023-04-26T16:36:10.938Z,9.91
2023-04-26T16:38:42.872Z,10.37
2023-04-26T16:41:11.000Z,10.69
2023-04-26T16:43:37.854Z,11.15
2023-04-26T16:46:08.082Z,11.93
2023-04-26T16:48:41.245Z,10.62
2023-04-26T16:51:08.159Z,11.14
2023-04-26T16:53:37.975Z,11.72
2023-04-26T16:56:08.689Z,12.36
2023-04-26T16:58:38.292Z,11.38
2023-04-26T17:01:13.648Z,10.52
2023-04-26T17:03:43.225Z,9.36
2023-04-26T17:06:10.697Z,8.94
2023-04-26T17:08:37.569Z,8.63
2023-04-26T17:11:10.522Z,8.65
2023-04-26T17:13:37.956Z,8.47
2023-04-26T17:16:05.814Z,8.39
2023-04-26T17:18:32.832Z,8.12
2023-04-26T17:20:59.650Z,7.87
2023-04-26T17:23:26.401Z,7.76
2023-04-26T17:25:55.133Z,7.64
2023-04-26T17:28:24.998Z,7.56
2023-04-26T17:30:52.016Z,7.57
2023-04-26T17:33:19.156Z,7.40
2023-04-26T17:35:47.172Z,7.16
2023-04-26T17:38:17.476Z,6.89
2023-04-26T17:41:03.204Z,6.70
2023-04-26T17:43:29.923Z,6.54
2023-04-26T17:45:59.694Z,6.47
2023-04-26T17:48:26.495Z,6.45
2023-04-26T17:50:58.488Z,6.42
2023-04-26T17:53:28.709Z,6.41
2023-04-26T17:56:01.768Z,6.46
2023-04-26T17:58:28.533Z,6.54
2023-04-26T18:00:55.553Z,6.68
2023-04-26T18:03:22.624Z,6.53
2023-04-26T18:05:49.956Z,6.44
2023-04-26T18:08:19.157Z,6.30
2023-04-26T18:10:50.476Z,6.16
2023-04-26T18:13:18.112Z,5.98
2023-04-26T18:15:45.016Z,5.89
2023-04-26T18:18:14.131Z,5.71
2023-04-26T18:20:44.029Z,5.59
2023-04-26T18:23:10.786Z,5.54
2023-04-26T18:25:37.481Z,5.42
2023-04-26T18:28:04.757Z,5.39
2023-04-26T18:30:31.616Z,5.32
2023-04-26T18:33:01.050Z,5.22
2023-04-26T18:35:27.784Z,5.10
2023-04-26T18:37:54.613Z,4.95
2023-04-26T18:40:21.641Z,4.85
2023-04-26T18:42:48.329Z,4.72
2023-04-26T18:45:17.951Z,4.61
2023-04-26T18:47:44.600Z,4.54
2023-04-26T18:50:11.404Z,4.52
2023-04-26T18:52:41.952Z,4.52
2023-04-26T18:55:11.905Z,4.53
2023-04-26T18:57:44.796Z,4.60
2023-04-26T19:00:21.357Z,4.63
2023-04-26T19:02:48.581Z,4.64
2023-04-26T19:05:17.708Z,4.57
2023-04-26T19:07:45.572Z,4.54
2023-04-26T19:10:14.937Z,4.47
2023-04-26T19:12:41.686Z,4.38
2023-04-26T19:15:08.929Z,4.27
2023-04-26T19:17:35.611Z,4.25
2023-04-26T19:20:02.612Z,4.16
2023-04-26T19:22:32.263Z,4.14
2023-04-26T19:25:00.135Z,4.11
2023-04-26T19:27:27.276Z,4.03
2023-04-26T19:29:58.297Z,4.04
2023-04-26T19:32:28.219Z,3.99
2023-04-26T19:35:02.323Z,3.92
2023-04-26T19:37:33.164Z,3.84
2023-04-26T19:40:01.916Z,3.82
2023-04-26T19:42:28.634Z,3.77
2023-04-26T20:01:24.405Z,4.28
2023-04-26T20:42:04.954Z,2.58
2023-04-26T21:19:43.578Z,2.23
2023-04-26T21:22:10.602Z,2.36
2023-04-26T22:43:02.126Z,0.76
2023-04-26T23:15:14.420Z,0.76
2023-04-26T23:17:47.086Z,0.77
2023-04-26T23:20:13.897Z,0.79
2023-04-26T23:22:44.683Z,0.76
2023-04-26T23:25:11.583Z,0.71
2023-04-26T23:27:39.113Z,0.69
2023-04-26T23:30:09.076Z,0.70
2023-04-26T23:32:35.826Z,0.67
2023-04-26T23:35:03.090Z,0.69
2023-04-26T23:37:29.956Z,0.70
2023-04-26T23:39:56.796Z,0.71
2023-04-26T23:42:23.736Z,0.66
2023-04-26T23:44:50.487Z,0.72
2023-04-26T23:47:17.358Z,0.72
2023-04-26T23:49:44.241Z,0.73
2023-04-26T23:52:11.596Z,0.72
2023-04-26T23:54:38.553Z,0.72
2023-04-26T23:57:05.430Z,0.70
2023-04-26T23:59:34.893Z,0.67
